Time;durP1;ratioP1;P1;durP2;ratioP2;P2;SDS_P1;SDS_P2;PMS_P1;PMS_P2;Temp;Humidity;BMP_temperature;BMP_pressure;BME280_temperature;BME280_humidity;BME280_pressure;Samples;Min_cycle;Max_cycle;Signal;HPM_P1;HPM_P2
2022/03/21 00:01:10;;;;;;;59.97;42.50;;;;;;;2.96;68.35;102703.09;3583800;40;20375;-64
2022/03/21 00:03:36;;;;;;;58.20;41.42;;;;;;;2.88;68.03;102694.22;3584459;40;20052;-63
2022/03/21 00:06:03;;;;;;;56.28;42.22;;;;;;;2.94;67.59;102704.84;3583974;39;20122;-63
2022/03/21 00:08:29;;;;;;;60.28;41.80;;;;;;;2.91;68.52;102705.72;3583500;39;20133;-64
2022/03/21 00:10:57;;;;;;;60.97;43.10;;;;;;;2.86;67.99;102704.84;3584162;39;20059;-65
2022/03/21 00:13:24;;;;;;;59.95;42.90;;;;;;;2.71;68.60;102681.81;3585777;40;20060;-64
2022/03/21 00:15:52;;;;;;;60.40;40.80;;;;;;;2.84;68.42;102708.38;3584025;40;20306;-67
2022/03/21 00:18:18;;;;;;;58.92;41.35;;;;;;;2.83;68.50;102715.47;3583373;39;20121;-65
2022/03/21 00:20:49;;;;;;;59.95;42.35;;;;;;;2.71;68.93;102703.06;3585837;39;20052;-65
2022/03/21 00:23:15;;;;;;;59.95;42.20;;;;;;;2.74;69.88;102707.50;3589148;39;20395;-64
2022/03/21 00:25:41;;;;;;;58.85;42.47;;;;;;;2.23;69.39;102632.22;3585961;40;20048;-64
2022/03/21 00:28:09;;;;;;;61.95;42.95;;;;;;;2.75;70.98;102714.56;3585929;40;20083;-63
2022/03/21 00:30:38;;;;;;;61.50;43.67;;;;;;;2.72;71.84;102719.88;3587391;39;20044;-63
2022/03/21 00:33:04;;;;;;;60.35;43.63;;;;;;;2.69;71.22;102715.44;3585717;39;20096;-63
2022/03/21 00:35:31;;;;;;;63.05;45.35;;;;;;;2.47;71.46;102681.78;3585413;39;20059;-64
2022/03/21 00:37:57;;;;;;;62.63;43.08;;;;;;;2.67;71.54;102725.19;3586775;39;20378;-63
2022/03/21 00:40:24;;;;;;;63.13;44.03;;;;;;;2.65;70.03;102723.41;3583988;39;20430;-64
2022/03/21 00:42:51;;;;;;;59.05;41.60;;;;;;;2.62;70.61;102721.63;3588327;39;20048;-63
2022/03/21 00:45:21;;;;;;;61.08;43.33;;;;;;;2.59;70.36;102724.28;3585034;39;20048;-64
2022/03/21 00:47:49;;;;;;;57.63;42.08;;;;;;;2.54;69.73;102724.28;3586112;39;20124;-64
2022/03/21 00:50:17;;;;;;;54.25;39.85;;;;;;;2.46;70.58;102718.06;3585646;39;20067;-62
2022/03/21 00:52:49;;;;;;;57.10;41.88;;;;;;;2.50;70.48;102727.78;3585059;39;20118;-63
2022/03/21 00:55:18;;;;;;;57.45;40.63;;;;;;;2.48;69.87;102736.66;3586103;39;20060;-64
2022/03/21 00:57:44;;;;;;;57.13;40.67;;;;;;;2.48;70.24;102732.25;3585533;39;20079;-64
2022/03/21 01:00:21;;;;;;;55.47;41.60;;;;;;;2.06;69.60;102666.66;3585663;39;20063;-63
2022/03/21 01:02:48;;;;;;;53.47;39.78;;;;;;;2.46;69.65;102731.34;3585793;39;20068;-64
2022/03/21 01:05:14;;;;;;;58.85;41.17;;;;;;;2.46;70.16;102736.66;3584957;39;20076;-64
2022/03/21 01:07:41;;;;;;;58.00;40.90;;;;;;;2.45;69.88;102736.66;3587644;39;20389;-64
2022/03/21 01:10:12;;;;;;;55.97;41.53;;;;;;;2.41;70.12;102746.38;3588956;39;20048;-64
2022/03/21 01:12:38;;;;;;;56.20;41.28;;;;;;;2.36;70.87;102740.16;3585467;39;20048;-65
2022/03/21 01:15:05;;;;;;;57.85;42.63;;;;;;;2.19;70.43;102710.03;3585184;39;20256;-64
2022/03/21 01:17:30;;;;;;;56.38;40.75;;;;;;;2.30;69.82;102730.41;3585575;39;20048;-64
2022/03/21 01:19:56;;;;;;;60.65;41.08;;;;;;;2.31;69.09;102733.94;3586847;39;20059;-64
2022/03/21 01:22:22;;;;;;;60.75;42.10;;;;;;;2.28;69.10;102739.25;3584740;39;20398;-62
2022/03/21 01:24:47;;;;;;;59.70;42.35;;;;;;;2.22;69.31;102739.22;3585198;39;20055;-64
2022/03/21 01:27:13;;;;;;;65.55;44.67;;;;;;;2.19;70.88;102745.44;3584823;39;20068;-64
2022/03/21 01:29:38;;;;;;;62.63;43.38;;;;;;;2.16;70.19;102734.78;3585425;39;20295;-65
2022/03/21 01:32:05;;;;;;;59.53;42.58;;;;;;;1.94;70.14;102704.66;3588173;39;20044;-64
2022/03/21 01:34:30;;;;;;;61.38;43.70;;;;;;;0.76;70.89;102496.50;3585931;39;20052;-63
2022/03/21 01:36:56;;;;;;;59.60;42.33;;;;;;;2.14;71.63;102740.97;3584534;39;20397;-64
2022/03/21 01:39:22;;;;;;;61.88;43.50;;;;;;;2.11;72.27;102740.97;3584878;39;20048;-65
2022/03/21 01:41:48;;;;;;;65.00;46.17;;;;;;;2.08;72.44;102740.06;3585091;39;20044;-64
2022/03/21 01:44:17;;;;;;;65.35;45.53;;;;;;;2.05;72.34;102745.34;3585648;39;20060;-64
2022/03/21 01:46:47;;;;;;;67.43;46.38;;;;;;;2.04;72.15;102745.34;3587340;39;20089;-63
2022/03/21 01:49:14;;;;;;;64.57;46.03;;;;;;;2.02;72.07;102737.38;3584561;39;20107;-63
2022/03/21 01:51:42;;;;;;;61.50;45.95;;;;;;;1.52;72.55;102663.81;3589175;39;20056;-65
2022/03/21 01:56:53;;;;;;;64.28;43.55;;;;;;;2.03;70.96;102738.25;3587087;39;20301;-64
2022/03/21 01:59:20;;;;;;;62.28;44.05;;;;;;;2.03;71.30;102733.88;3585588;39;20093;-63
2022/03/21 02:01:49;;;;;;;60.95;44.70;;;;;;;2.02;70.74;102736.50;3584865;39;20056;-65
2022/03/21 02:04:15;;;;;;;59.83;43.45;;;;;;;1.99;72.23;102728.53;3584937;39;20063;-64
2022/03/21 02:06:45;;;;;;;64.35;44.63;;;;;;;1.97;71.80;102733.84;3584303;39;20480;-63
2022/03/21 02:09:12;;;;;;;64.00;42.95;;;;;;;1.92;70.83;102724.97;3584516;39;20056;-63
2022/03/21 02:11:38;;;;;;;59.88;42.58;;;;;;;1.96;71.18;102734.69;3584696;39;20060;-64
2022/03/21 02:14:07;;;;;;;64.40;43.08;;;;;;;1.93;71.64;102742.63;3584591;39;20051;-63
2022/03/21 02:16:35;;;;;;;61.88;43.95;;;;;;;1.90;71.51;102745.28;3589647;39;20108;-66
2022/03/21 02:19:13;;;;;;;61.00;44.47;;;;;;;1.89;70.60;102747.94;3585288;39;20056;-64
2022/03/21 02:22:28;;;;;;;62.38;42.10;;;;;;;1.85;71.09;102747.03;3585667;39;20314;-64
2022/03/21 02:25:25;;;;;;;56.53;40.65;;;;;;;1.85;69.84;102744.38;3584305;40;20059;-63
2022/03/21 02:27:56;;;;;;;59.05;42.08;;;;;;;1.86;71.22;102751.44;3584692;39;20329;-64
2022/03/21 02:30:26;;;;;;;60.17;42.28;;;;;;;1.73;70.44;102723.09;3584398;39;20056;-65
2022/03/21 02:32:54;;;;;;;60.20;42.00;;;;;;;1.79;71.22;102739.91;3584176;39;20060;-63
2022/03/21 02:35:22;;;;;;;62.70;42.75;;;;;;;1.79;70.51;102747.00;3585161;39;20386;-63
2022/03/21 02:37:50;;;;;;;60.60;41.67;;;;;;;1.77;70.58;102746.09;3591528;39;20368;-63
2022/03/21 02:40:16;;;;;;;60.75;43.28;;;;;;;1.77;71.68;102752.28;3584362;40;20066;-64
2022/03/21 02:42:42;;;;;;;58.88;42.83;;;;;;;1.75;71.47;102745.22;3585890;40;20417;-64
2022/03/21 02:45:09;;;;;;;60.75;42.92;;;;;;;1.73;70.26;102744.31;3585868;40;20071;-62
2022/03/21 02:47:34;;;;;;;58.38;41.17;;;;;;;1.71;71.29;102748.69;3584502;40;20489;-64
2022/03/21 02:50:03;;;;;;;63.88;42.15;;;;;;;1.70;70.33;102744.28;3583769;40;20056;-62
2022/03/21 02:52:30;;;;;;;59.92;41.72;;;;;;;1.68;70.13;102744.28;3584990;39;20048;-63
2022/03/21 02:54:56;;;;;;;56.22;41.20;;;;;;;1.69;70.51;102750.47;3584137;39;20048;-63
2022/03/21 02:57:22;;;;;;;64.75;42.42;;;;;;;1.67;71.30;102738.97;3584437;40;20048;-63
2022/03/21 02:59:47;;;;;;;64.85;44.05;;;;;;;1.66;70.86;102747.81;3585898;40;20314;-64
2022/03/21 03:02:13;;;;;;;59.97;42.35;;;;;;;1.60;70.59;102728.31;3586459;39;20060;-64
2022/03/21 03:04:38;;;;;;;60.92;44.00;;;;;;;1.62;71.50;102737.19;3588973;40;20043;-63
2022/03/21 03:07:04;;;;;;;65.13;44.50;;;;;;;1.63;70.74;102744.25;3585968;39;20048;-63
2022/03/21 03:09:30;;;;;;;59.25;41.63;;;;;;;1.63;71.21;102738.94;3584697;39;20098;-64
2022/03/21 03:11:55;;;;;;;59.45;43.63;;;;;;;1.64;70.44;102742.47;3587385;39;20095;-64
2022/03/21 03:14:21;;;;;;;61.75;43.47;;;;;;;1.61;70.53;102740.69;3586749;39;20418;-64
2022/03/21 03:16:47;;;;;;;59.60;41.83;;;;;;;1.62;70.22;102741.59;3586335;39;20079;-63
2022/03/21 03:19:13;;;;;;;62.00;43.13;;;;;;;1.58;70.53;102740.66;3584225;39;20075;-63
2022/03/21 03:21:46;;;;;;;63.95;43.60;;;;;;;1.56;70.88;102753.06;3590228;39;20046;-64
2022/03/21 03:24:12;;;;;;;61.05;42.78;;;;;;;1.56;70.23;102741.56;3583876;39;20074;-62
2022/03/21 03:26:38;;;;;;;60.10;42.25;;;;;;;1.55;70.49;102742.41;3584743;39;20062;-64
2022/03/21 03:29:04;;;;;;;61.88;42.35;;;;;;;1.32;70.93;102697.22;3588250;39;20058;-63
2022/03/21 03:31:31;;;;;;;57.25;41.55;;;;;;;1.57;70.10;102749.50;3594691;39;20064;-64
2022/03/21 03:33:58;;;;;;;59.63;41.45;;;;;;;1.55;69.39;102745.06;3584069;39;20051;-64
2022/03/21 03:36:24;;;;;;;57.10;40.85;;;;;;;1.05;70.17;102674.09;3583823;39;20044;-63
2022/03/21 03:38:51;;;;;;;62.67;43.10;;;;;;;1.32;70.04;102726.38;3582555;39;20044;-63
2022/03/21 03:41:17;;;;;;;63.63;44.80;;;;;;;1.50;71.28;102758.31;3584076;39;20080;-63
2022/03/21 03:43:44;;;;;;;63.72;44.65;;;;;;;1.48;70.20;102762.69;3583951;40;20110;-64
2022/03/21 03:46:10;;;;;;;64.07;43.58;;;;;;;1.45;70.87;102762.69;3587531;39;20056;-63
2022/03/21 03:48:38;;;;;;;62.70;42.90;;;;;;;1.46;70.33;102767.13;3588728;39;20054;-63
2022/03/21 03:51:04;;;;;;;62.33;43.28;;;;;;;1.41;71.14;102760.88;3585588;39;20044;-63
2022/03/21 03:53:30;;;;;;;60.78;44.28;;;;;;;1.37;71.15;102759.97;3584019;40;20044;-64
2022/03/21 03:55:56;;;;;;;60.42;44.13;;;;;;;1.23;70.10;102731.59;3583740;39;20056;-63
2022/03/21 03:58:22;;;;;;;64.18;42.35;;;;;;;1.22;70.53;102740.44;3584020;40;20061;-65
2022/03/21 04:00:49;;;;;;;63.05;43.22;;;;;;;1.39;70.80;102778.53;3586297;39;20087;-62
2022/03/21 04:05:59;;;;;;;64.70;43.45;;;;;;;1.39;70.61;102775.88;3587500;39;20473;-64
2022/03/21 04:08:25;;;;;;;65.60;44.78;;;;;;;1.36;71.18;102771.47;3583465;39;20048;-65
2022/03/21 04:10:51;;;;;;;63.78;44.85;;;;;;;1.20;72.85;102752.78;3584930;39;20081;-63
2022/03/21 04:13:16;;;;;;;63.95;45.13;;;;;;;1.27;72.62;102765.19;3587882;40;20064;-64
2022/03/21 04:15:42;;;;;;;68.32;46.75;;;;;;;1.14;72.83;102748.31;3583711;40;20098;-64
2022/03/21 04:18:07;;;;;;;63.50;43.90;;;;;;;1.27;71.98;102775.78;3583122;40;20059;-64
2022/03/21 04:20:36;;;;;;;73.03;46.22;;;;;;;1.26;72.89;102768.72;3627771;23;20405;-64
2022/03/21 04:23:07;;;;;;;63.08;45.42;;;;;;;1.24;72.68;102771.38;3588696;39;20059;-62
2022/03/21 04:25:33;;;;;;;68.47;44.85;;;;;;;1.17;72.70;102764.22;3589450;40;20067;-64
2022/03/21 04:28:00;;;;;;;63.15;43.15;;;;;;;1.08;72.40;102738.56;3588344;39;20052;-64
2022/03/21 04:30:26;;;;;;;64.13;44.83;;;;;;;1.22;71.56;102761.63;3590206;39;20044;-65
2022/03/21 04:32:51;;;;;;;61.70;42.22;;;;;;;0.73;70.89;102672.09;3590142;39;20388;-64
2022/03/21 04:35:17;;;;;;;60.83;41.97;;;;;;;1.28;71.35;102765.22;3586828;40;20051;-63
2022/03/21 04:37:43;;;;;;;58.58;41.70;;;;;;;1.16;70.48;102750.09;3586084;40;20402;-63
2022/03/21 04:40:10;;;;;;;62.63;42.92;;;;;;;1.28;71.37;102766.97;3591584;39;20062;-62
2022/03/21 04:42:38;;;;;;;58.47;42.08;;;;;;;1.24;70.75;102754.56;3585646;39;20325;-62
2022/03/21 04:45:05;;;;;;;60.72;41.95;;;;;;;1.15;70.28;102747.44;3588657;39;20061;-63
2022/03/21 04:47:31;;;;;;;59.80;42.22;;;;;;;1.24;70.57;102763.41;3590615;40;20356;-64
2022/03/21 04:49:58;;;;;;;62.83;43.63;;;;;;;1.08;71.31;102735.91;3588660;39;20313;-63
2022/03/21 04:52:24;;;;;;;63.22;43.90;;;;;;;1.20;70.67;102758.06;3587545;39;20063;-64
2022/03/21 04:54:49;;;;;;;62.58;42.58;;;;;;;1.25;71.66;102781.06;3587276;40;20051;-64
2022/03/21 04:57:20;;;;;;;58.90;42.05;;;;;;;1.20;71.23;102773.97;3589723;39;20072;-64
2022/03/21 04:59:45;;;;;;;60.60;42.03;;;;;;;1.19;70.43;102773.09;3583638;40;20068;-65
2022/03/21 05:02:11;;;;;;;65.25;43.53;;;;;;;1.17;71.52;102761.56;3586751;40;20107;-64
2022/03/21 05:04:37;;;;;;;70.47;45.03;;;;;;;1.24;72.89;102779.31;3588934;39;20067;-63
2022/03/21 05:07:03;;;;;;;68.78;45.28;;;;;;;1.22;73.85;102773.09;3591831;40;20055;-64
2022/03/21 05:09:28;;;;;;;69.13;47.25;;;;;;;1.22;73.25;102774.88;3589218;39;20413;-64
2022/03/21 05:11:54;;;;;;;74.80;48.88;;;;;;;1.14;74.08;102773.06;3590775;40;20290;-63
2022/03/21 05:14:20;;;;;;;73.85;47.53;;;;;;;1.16;73.92;102784.53;3591050;39;20052;-63
2022/03/21 05:16:49;;;;;;;71.68;48.03;;;;;;;1.20;73.91;102789.84;3592434;40;20066;-63
2022/03/21 05:19:16;;;;;;;70.63;47.40;;;;;;;1.19;73.75;102796.91;3593302;40;20048;-65
2022/03/21 05:21:42;;;;;;;71.13;47.08;;;;;;;1.16;74.21;102796.88;3590773;39;20052;-62
2022/03/21 05:32:25;;;;;;;71.97;46.63;;;;;;;0.93;74.11;102759.63;3590692;40;20060;-64
2022/03/21 05:37:35;;;;;;;;;;;;;;;0.97;73.24;102779.94;3583594;40;20118;-64
2022/03/21 05:42:44;;;;;;;;;;;;;;;0.97;74.77;102787.00;3586655;40;20063;-67
2022/03/21 05:45:11;;;;;;;70.18;45.88;;;;;;;0.90;74.72;102764.88;3587121;40;20210;-65
2022/03/21 05:48:50;;;;;;;67.18;46.28;;;;;;;0.78;75.15;102749.75;3594018;39;20297;-68
2022/03/21 05:50:22;;;;;;;73.30;44.42;;;;;;;1.02;75.40;102783.53;3585236;40;20048;-63
2022/03/21 05:52:48;;;;;;;67.93;44.33;;;;;;;1.06;74.78;102785.31;3589371;40;20059;-63
2022/03/21 05:55:13;;;;;;;66.13;45.10;;;;;;;1.12;73.65;102793.34;3584809;40;20321;-62
2022/03/21 05:57:39;;;;;;;63.25;43.45;;;;;;;1.15;74.66;102788.06;3584433;40;20048;-63
2022/03/21 06:00:20;;;;;;;64.25;43.88;;;;;;;1.05;73.17;102780.91;3590087;40;20374;-63
2022/03/21 06:02:46;;;;;;;62.47;41.53;;;;;;;1.25;73.76;102806.69;3582635;40;20052;-63
2022/03/21 06:05:12;;;;;;;63.60;42.90;;;;;;;1.23;73.90;102798.72;3581551;40;20079;-64
2022/03/21 06:07:38;;;;;;;62.88;42.25;;;;;;;1.30;72.34;102802.28;3582257;40;20380;-64
2022/03/21 06:10:04;;;;;;;60.35;42.42;;;;;;;1.23;72.57;102784.59;3584504;40;20059;-64
2022/03/21 06:12:32;;;;;;;63.92;42.47;;;;;;;1.34;72.08;102798.81;3582090;40;20056;-64
2022/03/21 06:14:59;;;;;;;64.68;43.42;;;;;;;1.37;73.62;102806.78;3578950;40;20071;-64
2022/03/21 06:17:25;;;;;;;69.05;44.42;;;;;;;1.28;73.82;102780.22;3583977;40;20109;-64
2022/03/21 06:19:51;;;;;;;61.20;42.80;;;;;;;1.51;72.64;102810.44;3578895;40;20084;-63
2022/03/21 06:22:17;;;;;;;64.63;42.47;;;;;;;1.67;72.98;102819.38;3583578;40;20169;-63
2022/03/21 06:24:43;;;;;;;63.67;42.35;;;;;;;1.69;72.85;102800.84;3581586;40;20106;-64
2022/03/21 06:27:08;;;;;;;59.78;41.90;;;;;;;1.84;72.82;102803.59;3578106;40;20479;-63
2022/03/21 06:29:34;;;;;;;58.08;41.10;;;;;;;1.99;71.80;102810.75;3581958;40;20057;-62
2022/03/21 06:32:00;;;;;;;59.70;41.58;;;;;;;2.16;70.99;102813.47;3580825;40;20071;-62
2022/03/21 06:34:25;;;;;;;58.85;41.22;;;;;;;2.24;72.24;102809.09;3582327;40;20085;-62
2022/03/21 06:36:52;;;;;;;65.00;42.03;;;;;;;2.39;71.10;102808.28;3580156;40;20157;-62
2022/03/21 06:39:18;;;;;;;57.65;39.97;;;;;;;2.54;71.49;102811.00;3580423;40;20318;-62
2022/03/21 06:41:44;;;;;;;60.83;42.55;;;;;;;2.65;71.66;102816.34;3584855;40;20051;-62
2022/03/21 06:44:11;;;;;;;64.80;42.70;;;;;;;2.83;70.21;102823.47;3582839;40;20426;-63
2022/03/21 06:46:37;;;;;;;62.85;42.42;;;;;;;2.94;70.05;102822.59;3581198;40;20117;-63
2022/03/21 06:49:03;;;;;;;58.97;40.50;;;;;;;3.13;69.54;102827.94;3583536;40;20040;-63
2022/03/21 06:51:29;;;;;;;56.72;40.28;;;;;;;3.26;69.84;102814.66;3583099;40;20052;-67
2022/03/21 06:53:55;;;;;;;66.30;41.90;;;;;;;3.48;70.03;102827.97;3581395;40;20074;-63
2022/03/21 06:56:21;;;;;;;61.95;42.08;;;;;;;3.35;69.11;102781.91;3583752;39;20044;-65
2022/03/21 06:58:46;;;;;;;58.60;42.13;;;;;;;3.72;69.28;102824.41;3580820;40;20054;-63
2022/03/21 07:01:12;;;;;;;54.67;41.90;;;;;;;3.90;69.54;102840.38;3580829;40;20075;-64
2022/03/21 07:03:38;;;;;;;63.42;42.30;;;;;;;4.00;69.66;102840.34;3579451;40;20050;-64
2022/03/21 07:06:03;;;;;;;60.60;41.60;;;;;;;4.16;69.19;102839.41;3580633;40;20056;-64
2022/03/21 07:08:30;;;;;;;59.20;42.95;;;;;;;4.25;68.85;102834.06;3581695;40;20064;-64
2022/03/21 07:10:56;;;;;;;59.22;43.03;;;;;;;4.32;69.61;102822.50;3578695;40;20057;-64
2022/03/21 07:13:22;;;;;;;60.00;41.08;;;;;;;4.59;69.47;102836.56;3585455;40;20055;-64
2022/03/21 07:15:48;;;;;;;60.47;41.72;;;;;;;4.74;69.57;102846.28;3578303;40;20048;-63
2022/03/21 07:18:13;;;;;;;56.38;42.05;;;;;;;4.86;69.71;102838.22;3583181;40;20064;-62
2022/03/21 07:20:43;;;;;;;62.33;41.25;;;;;;;5.07;69.18;102845.19;3582781;40;20466;-62
2022/03/21 07:23:09;;;;;;;59.97;40.30;;;;;;;5.28;69.09;102847.72;3580879;40;20137;-62
2022/03/21 07:25:34;;;;;;;54.53;40.20;;;;;;;5.61;68.70;102847.44;3587026;40;20385;-62
2022/03/21 07:28:00;;;;;;;53.78;40.67;;;;;;;5.94;67.25;102846.31;3582611;40;20060;-62
2022/03/21 07:30:26;;;;;;;58.00;41.35;;;;;;;6.32;68.50;102842.34;3585264;40;20100;-64
2022/03/21 07:32:52;;;;;;;54.35;39.50;;;;;;;6.56;66.57;102825.97;3579059;40;20044;-63
2022/03/21 07:35:18;;;;;;;53.10;38.67;;;;;;;7.14;65.93;102849.25;3587075;40;20048;-63
2022/03/21 07:37:50;;;;;;;50.63;36.63;;;;;;;7.55;64.98;102847.72;3581238;40;20125;-63
2022/03/21 07:40:18;;;;;;;46.90;35.97;;;;;;;7.98;65.54;102843.38;3583701;40;20085;-63
2022/03/21 07:42:47;;;;;;;48.10;33.67;;;;;;;8.39;63.63;102847.97;3583265;40;20052;-62
2022/03/21 07:47:59;;;;;;;40.78;27.08;;;;;;;9.01;62.21;102843.06;3580537;40;20130;-63
2022/03/21 07:50:26;;;;;;;41.13;28.10;;;;;;;9.35;61.89;102846.72;3582743;40;20049;-63
2022/03/21 07:52:57;;;;;;;36.65;27.33;;;;;;;9.55;61.23;102841.78;3584065;40;20284;-63
2022/03/21 07:55:23;;;;;;;40.90;27.88;;;;;;;9.94;59.86;102844.31;3577574;40;20546;-63
2022/03/21 07:57:49;;;;;;;38.58;27.05;;;;;;;10.15;58.52;102835.69;3580505;40;20380;-63
2022/03/21 08:00:15;;;;;;;32.92;25.67;;;;;;;10.51;57.90;102846.34;3582772;40;20060;-64
2022/03/21 08:02:43;;;;;;;36.50;26.02;;;;;;;10.73;57.21;102843.03;3582973;40;20431;-64
2022/03/21 08:05:09;;;;;;;34.45;25.60;;;;;;;10.87;56.50;102847.03;3579228;40;20080;-64
2022/03/21 08:07:35;;;;;;;36.53;25.90;;;;;;;11.12;56.52;102851.66;3582795;40;20081;-62
2022/03/21 08:10:02;;;;;;;34.70;25.95;;;;;;;11.39;56.54;102845.41;3580593;40;20041;-63
2022/03/21 08:12:28;;;;;;;31.17;21.90;;;;;;;11.68;53.98;102848.06;3577707;40;20126;-63
2022/03/21 08:14:54;;;;;;;30.40;22.23;;;;;;;11.85;53.54;102838.47;3580888;40;20048;-63
2022/03/21 08:17:19;;;;;;;26.55;18.85;;;;;;;12.19;52.36;102850.75;3580724;40;20387;-65
2022/03/21 08:19:45;;;;;;;29.80;18.73;;;;;;;12.42;51.85;102852.59;3580024;40;20079;-64
2022/03/21 08:22:11;;;;;;;26.30;18.08;;;;;;;12.69;49.90;102855.22;3576998;40;20119;-63
2022/03/21 08:24:37;;;;;;;33.45;18.00;;;;;;;12.89;50.15;102854.44;3579801;40;20090;-64
2022/03/21 08:27:05;;;;;;;27.95;17.25;;;;;;;13.08;48.49;102860.88;3582194;40;20060;-63
2022/03/21 08:29:31;;;;;;;26.27;17.30;;;;;;;13.37;47.93;102856.16;3582095;40;20053;-63
2022/03/21 08:31:57;;;;;;;25.63;16.77;;;;;;;13.57;47.11;102850.78;3577506;40;20048;-63
2022/03/21 08:34:23;;;;;;;27.30;16.52;;;;;;;13.78;45.67;102851.69;3578391;40;20133;-63
2022/03/21 08:36:49;;;;;;;21.27;14.65;;;;;;;13.97;45.47;102851.78;3579147;40;20088;-62
2022/03/21 08:39:15;;;;;;;26.13;15.23;;;;;;;13.85;43.90;102825.28;3581566;39;20072;-64
2022/03/21 08:41:40;;;;;;;22.13;14.63;;;;;;;14.13;44.62;102847.44;3578297;40;20395;-64
2022/03/21 08:44:06;;;;;;;20.80;14.27;;;;;;;14.25;43.02;102851.44;3578654;40;20114;-64
2022/03/21 08:46:32;;;;;;;21.75;14.00;;;;;;;14.35;43.11;102851.91;3584320;40;20053;-64
2022/03/21 08:51:43;;;;;;;24.25;13.73;;;;;;;14.69;43.81;102851.28;3582958;40;20413;-64
2022/03/21 08:54:10;;;;;;;21.23;14.23;;;;;;;14.86;42.29;102859.47;3583404;40;20472;-64
2022/03/21 08:56:36;;;;;;;21.38;14.77;;;;;;;14.76;42.24;102843.75;3584235;40;20052;-64
2022/03/21 08:59:03;;;;;;;23.13;15.15;;;;;;;14.81;42.31;102844.38;3583580;40;20064;-63
2022/03/21 09:01:29;;;;;;;21.88;14.40;;;;;;;15.02;42.81;102831.66;3583023;40;20421;-63
2022/03/21 09:03:55;;;;;;;20.65;14.50;;;;;;;15.02;42.13;102832.53;3583381;40;20085;-63
2022/03/21 09:06:21;;;;;;;21.90;14.65;;;;;;;15.04;42.68;102827.94;3584561;40;20056;-63
2022/03/21 09:08:50;;;;;;;22.25;14.80;;;;;;;15.53;42.98;102846.28;3582147;40;20058;-64
2022/03/21 09:11:17;;;;;;;22.23;15.25;;;;;;;15.70;41.62;102850.91;3581618;39;20067;-64
2022/03/21 09:13:45;;;;;;;24.92;14.77;;;;;;;15.81;41.35;102848.50;3578120;40;20060;-64
2022/03/21 09:16:12;;;;;;;24.80;14.93;;;;;;;15.87;40.43;102821.06;3589207;39;20048;-63
2022/03/21 09:18:38;;;;;;;22.13;15.50;;;;;;;15.95;40.50;102804.38;3582328;40;20052;-66
2022/03/21 09:21:04;;;;;;;22.00;16.05;;;;;;;16.28;40.85;102853.25;3588375;39;20449;-64
2022/03/21 09:23:29;;;;;;;21.25;14.82;;;;;;;16.33;41.06;102847.56;3584997;40;20059;-64
2022/03/21 09:25:55;;;;;;;23.65;15.73;;;;;;;16.51;41.24;102843.00;3584538;40;20053;-64
2022/03/21 09:28:21;;;;;;;21.65;14.23;;;;;;;16.74;39.14;102847.16;3581821;40;20052;-64
2022/03/21 09:30:48;;;;;;;25.00;15.13;;;;;;;16.82;38.21;102848.53;3582210;40;20488;-64
2022/03/21 09:33:15;;;;;;;21.23;14.60;;;;;;;16.97;40.36;102835.03;3583495;40;20052;-64
2022/03/21 09:35:43;;;;;;;21.77;14.63;;;;;;;17.09;38.20;102826.16;3582699;40;20044;-64
2022/03/21 09:38:10;;;;;;;20.50;14.40;;;;;;;17.27;37.72;102836.00;3589851;39;20056;-64
2022/03/21 09:40:37;;;;;;;20.52;14.93;;;;;;;17.40;37.04;102839.72;3585292;40;20055;-63
2022/03/21 09:43:02;;;;;;;26.60;15.95;;;;;;;17.38;38.40;102825.38;3584299;40;20114;-65
2022/03/21 09:45:28;;;;;;;21.67;14.90;;;;;;;17.31;37.20;102815.81;3585434;39;20063;-65
2022/03/21 09:48:12;;;;;;;25.88;14.43;;;;;;;17.48;37.46;102833.00;3583009;40;20341;-65
2022/03/21 09:50:50;;;;;;;22.05;14.52;;;;;;;17.55;37.22;102815.34;3584984;40;20052;-65
2022/03/21 09:53:17;;;;;;;20.15;14.05;;;;;;;17.79;36.25;102827.50;3590239;40;20391;-65
2022/03/21 09:55:45;;;;;;;22.90;14.77;;;;;;;17.87;37.20;102829.75;3590699;39;20111;-65
2022/03/21 09:58:11;;;;;;;21.98;14.63;;;;;;;17.84;36.09;102817.19;3584543;40;20056;-65
2022/03/21 10:00:42;;;;;;;19.73;14.10;;;;;;;18.12;37.18;102833.69;3593321;39;20333;-65
2022/03/21 10:03:09;;;;;;;19.27;13.80;;;;;;;18.32;36.92;102823.31;3590564;40;20417;-65
2022/03/21 10:05:44;;;;;;;21.60;14.40;;;;;;;18.41;36.48;102818.25;3588427;39;20112;-65
2022/03/21 10:08:28;;;;;;;20.75;13.88;;;;;;;18.47;35.68;102815.16;3583225;40;20045;-65
2022/03/21 10:11:06;;;;;;;25.20;14.25;;;;;;;18.56;35.22;102817.28;3584907;40;20394;-65
2022/03/21 10:13:38;;;;;;;22.38;14.07;;;;;;;18.49;35.68;102814.09;3584639;40;20064;-65
2022/03/21 10:16:08;;;;;;;20.02;14.52;;;;;;;18.49;35.17;102813.19;3583727;40;20060;-65
2022/03/21 10:18:35;;;;;;;22.85;15.48;;;;;;;18.67;34.15;102814.72;3581586;40;20075;-66
2022/03/21 10:21:13;;;;;;;21.48;14.40;;;;;;;18.57;33.52;102778.16;3606930;22;20054;-65
2022/03/21 10:23:39;;;;;;;18.13;13.35;;;;;;;18.82;35.41;102804.72;3585399;40;20087;-65
2022/03/21 10:26:28;;;;;;;22.65;14.07;;;;;;;18.96;34.38;102812.00;3588851;40;20053;-64
2022/03/21 10:28:58;;;;;;;23.25;15.32;;;;;;;18.94;34.40;102803.94;3592017;40;20040;-65
2022/03/21 10:31:38;;;;;;;18.95;13.40;;;;;;;19.01;34.96;102808.00;3583739;40;20079;-64
2022/03/21 10:34:17;;;;;;;18.98;13.70;;;;;;;19.18;34.19;102804.13;3582712;40;20162;-63
2022/03/21 10:37:08;;;;;;;21.17;13.77;;;;;;;19.28;33.63;102811.72;3580599;40;20413;-64
2022/03/21 10:39:38;;;;;;;22.23;14.57;;;;;;;18.99;33.68;102746.38;3580257;40;20056;-63
2022/03/21 10:42:14;;;;;;;22.13;14.80;;;;;;;19.30;34.84;102809.75;3580688;40;20052;-64
2022/03/21 10:44:40;;;;;;;23.83;15.10;;;;;;;19.33;34.21;102810.44;3583545;40;20376;-64
2022/03/21 10:47:08;;;;;;;26.02;16.08;;;;;;;19.38;34.57;102810.13;3580964;40;20055;-64
2022/03/21 10:49:44;;;;;;;22.98;15.80;;;;;;;19.44;34.31;102815.16;3580761;40;20469;-64
2022/03/21 10:52:21;;;;;;;22.13;15.45;;;;;;;19.47;34.49;102806.75;3583045;40;20088;-64
2022/03/21 10:54:51;;;;;;;22.67;15.52;;;;;;;19.59;34.16;102810.50;3582949;40;20353;-64
2022/03/21 10:57:37;;;;;;;22.55;15.77;;;;;;;19.53;34.55;102800.00;3581803;40;20052;-64
2022/03/21 11:00:20;;;;;;;22.17;16.17;;;;;;;19.54;35.72;102802.66;3580969;40;20095;-64
2022/03/21 11:02:51;;;;;;;26.40;15.95;;;;;;;19.38;34.98;102763.78;3583295;40;20048;-64
2022/03/21 11:05:19;;;;;;;22.55;16.00;;;;;;;19.79;34.47;102795.50;3581842;40;20299;-64
2022/03/21 11:07:47;;;;;;;24.60;16.05;;;;;;;19.96;33.84;102773.38;3576319;40;20056;-64
2022/03/21 11:10:14;;;;;;;24.98;16.27;;;;;;;20.25;35.17;102781.34;3582566;40;20137;-64
2022/03/21 11:12:47;;;;;;;19.27;15.50;;;;;;;20.31;33.36;102786.38;3583253;40;20096;-64
2022/03/21 11:15:15;;;;;;;20.67;15.25;;;;;;;20.38;33.09;102782.22;3582084;40;20052;-64
2022/03/21 11:17:43;;;;;;;22.35;16.27;;;;;;;20.41;34.22;102790.19;3582117;40;20052;-64
2022/03/21 11:20:13;;;;;;;22.98;16.08;;;;;;;20.53;32.31;102786.59;3580807;40;20059;-63
2022/03/21 11:22:42;;;;;;;19.95;15.48;;;;;;;20.73;32.71;102787.00;3582784;40;20056;-64
2022/03/21 11:25:12;;;;;;;23.38;16.95;;;;;;;20.85;33.56;102783.34;3581813;40;20315;-63
2022/03/21 11:28:26;;;;;;;22.33;15.60;;;;;;;21.04;32.60;102780.13;3580723;40;20368;-63
2022/03/21 11:31:31;;;;;;;;;;;;;;;20.96;32.74;102782.53;3582004;40;20048;-63
2022/03/21 11:34:42;;;;;;;27.15;16.75;;;;;;;21.10;32.88;102774.19;3582662;40;20183;-64
2022/03/21 11:37:25;;;;;;;24.73;16.27;;;;;;;21.25;32.03;102775.75;3581864;40;20068;-63
2022/03/21 11:40:26;;;;;;;27.80;16.92;;;;;;;21.46;32.96;102772.38;3582147;40;20048;-64
2022/03/21 11:42:55;;;;;;;23.10;16.65;;;;;;;21.73;32.77;102769.38;3581403;40;20052;-63
2022/03/21 11:45:33;;;;;;;21.95;14.73;;;;;;;21.88;31.11;102765.41;3579985;40;20064;-65